sensor_id;sensor_type;location;lat;lon;timestamp;pressure;altitude;pressure_sealevel;temperature;humidity
141;BME280;65;48.778;9.160;2023-02-15T00:01:27;99888.16;;;0.32;100.00
141;BME280;65;48.778;9.160;2023-02-15T00:03:54;99883.81;;;0.30;100.00
141;BME280;65;48.778;9.160;2023-02-15T00:06:19;99889.88;;;0.34;100.00
141;BME280;65;48.778;9.160;2023-02-15T00:08:45;99887.25;;;0.27;100.00
141;BME280;65;48.778;9.160;2023-02-15T00:11:12;99876.84;;;0.27;100.00
141;BME280;65;48.778;9.160;2023-02-15T00:13:38;99875.97;;;0.24;100.00
141;BME280;65;48.778;9.160;2023-02-15T00:16:09;99870.75;;;0.21;100.00
141;BME280;65;48.778;9.160;2023-02-15T00:18:35;99869.03;;;0.23;100.00
141;BME280;65;48.778;9.160;2023-02-15T00:21:06;99862.94;;;0.19;100.00
141;BME280;65;48.778;9.160;2023-02-15T00:23:33;99869.03;;;0.24;100.00
141;BME280;65;48.778;9.160;2023-02-15T00:26:10;99865.59;;;0.30;100.00
141;BME280;65;48.778;9.160;2023-02-15T00:28:36;99863.91;;;0.41;100.00
141;BME280;65;48.778;9.160;2023-02-15T00:31:06;99866.50;;;0.40;100.00
141;BME280;65;48.778;9.160;2023-02-15T00:33:32;99863.03;;;0.39;100.00
141;BME280;65;48.778;9.160;2023-02-15T00:35:59;99865.66;;;0.39;100.00
141;BME280;65;48.778;9.160;2023-02-15T00:38:29;99871.69;;;0.37;100.00
141;BME280;65;48.778;9.160;2023-02-15T00:40:56;99859.56;;;0.34;100.00
141;BME280;65;48.778;9.160;2023-02-15T00:43:24;99863.00;;;0.28;100.00
141;BME280;65;48.778;9.160;2023-02-15T00:45:49;99864.72;;;0.26;100.00
141;BME280;65;48.778;9.160;2023-02-15T00:48:15;99863.88;;;0.30;100.00
141;BME280;65;48.778;9.160;2023-02-15T00:50:40;99852.63;;;0.33;100.00
141;BME280;65;48.778;9.160;2023-02-15T00:53:06;99857.84;;;0.36;100.00
141;BME280;65;48.778;9.160;2023-02-15T00:55:32;99866.50;;;0.37;100.00
141;BME280;65;48.778;9.160;2023-02-15T00:57:57;99856.94;;;0.28;100.00
141;BME280;65;48.778;9.160;2023-02-15T01:00:23;99865.56;;;0.21;100.00
141;BME280;65;48.778;9.160;2023-02-15T01:02:48;99862.09;;;0.20;100.00
141;BME280;65;48.778;9.160;2023-02-15T01:05:13;99856.88;;;0.19;100.00
141;BME280;65;48.778;9.160;2023-02-15T01:07:39;99849.09;;;0.23;100.00
141;BME280;65;48.778;9.160;2023-02-15T01:10:06;99850.84;;;0.26;100.00
141;BME280;65;48.778;9.160;2023-02-15T01:12:32;99853.44;;;0.26;100.00
141;BME280;65;48.778;9.160;2023-02-15T01:14:58;99853.44;;;0.23;100.00
141;BME280;65;48.778;9.160;2023-02-15T01:17:23;99856.03;;;0.21;100.00
141;BME280;65;48.778;9.160;2023-02-15T01:19:48;99856.88;;;0.19;100.00
141;BME280;65;48.778;9.160;2023-02-15T01:22:14;99856.91;;;0.20;100.00
141;BME280;65;48.778;9.160;2023-02-15T01:24:49;99860.34;;;0.16;100.00
141;BME280;65;48.778;9.160;2023-02-15T01:27:15;99857.72;;;0.15;100.00
141;BME280;65;48.778;9.160;2023-02-15T01:29:40;99862.09;;;0.19;100.00
141;BME280;65;48.778;9.160;2023-02-15T01:32:05;99857.72;;;0.13;100.00
141;BME280;65;48.778;9.160;2023-02-15T01:34:31;99864.63;;;0.10;100.00
141;BME280;65;48.778;9.160;2023-02-15T01:36:56;99860.28;;;0.04;100.00
141;BME280;65;48.778;9.160;2023-02-15T01:39:22;99858.47;;;-0.02;100.00
141;BME280;65;48.778;9.160;2023-02-15T01:41:47;99852.34;;;-0.11;100.00
141;BME280;65;48.778;9.160;2023-02-15T01:47:16;99851.41;;;-0.24;100.00
141;BME280;65;48.778;9.160;2023-02-15T01:49:44;99851.41;;;-0.24;100.00
141;BME280;65;48.778;9.160;2023-02-15T01:52:14;99841.88;;;-0.23;100.00
141;BME280;65;48.778;9.160;2023-02-15T01:54:43;99845.34;;;-0.24;100.00
141;BME280;65;48.778;9.160;2023-02-15T01:57:13;99840.16;;;-0.21;100.00
141;BME280;65;48.778;9.160;2023-02-15T01:59:43;99841.88;;;-0.26;100.00
141;BME280;65;48.778;9.160;2023-02-15T02:02:13;99839.31;;;-0.17;100.00
141;BME280;65;48.778;9.160;2023-02-15T02:04:59;99841.94;;;-0.17;100.00
141;BME280;65;48.778;9.160;2023-02-15T02:07:32;99843.66;;;-0.16;100.00
141;BME280;65;48.778;9.160;2023-02-15T02:09:58;99844.53;;;-0.14;100.00
141;BME280;65;48.778;9.160;2023-02-15T02:12:25;99835.88;;;-0.13;100.00
141;BME280;65;48.778;9.160;2023-02-15T02:14:52;99834.16;;;-0.14;100.00
141;BME280;65;48.778;9.160;2023-02-15T02:17:35;99828.97;;;-0.13;100.00
141;BME280;65;48.778;9.160;2023-02-15T02:20:26;99832.41;;;-0.14;100.00
141;BME280;65;48.778;9.160;2023-02-15T02:33:43;99821.88;;;-0.38;100.00
141;BME280;65;48.778;9.160;2023-02-15T02:44:29;99822.00;;;-0.20;100.00
141;BME280;65;48.778;9.160;2023-02-15T02:47:09;99815.03;;;-0.24;100.00
141;BME280;65;48.778;9.160;2023-02-15T02:49:39;99824.53;;;-0.27;100.00
141;BME280;65;48.778;9.160;2023-02-15T02:52:31;99826.25;;;-0.33;100.00
141;BME280;65;48.778;9.160;2023-02-15T02:54:52;99825.34;;;-0.36;100.00
141;BME280;65;48.778;9.160;2023-02-15T02:57:19;99815.84;;;-0.33;100.00
141;BME280;65;48.778;9.160;2023-02-15T02:59:48;99823.66;;;-0.29;100.00
141;BME280;65;48.778;9.160;2023-02-15T03:02:26;99815.88;;;-0.31;100.00
141;BME280;65;48.778;9.160;2023-02-15T03:04:59;99818.50;;;-0.26;100.00
141;BME280;65;48.778;9.160;2023-02-15T03:07:30;99816.78;;;-0.23;100.00
141;BME280;65;48.778;9.160;2023-02-15T03:09:58;99808.97;;;-0.24;100.00
141;BME280;65;48.778;9.160;2023-02-15T03:12:36;99806.38;;;-0.23;100.00
141;BME280;65;48.778;9.160;2023-02-15T03:15:10;99806.38;;;-0.23;100.00
141;BME280;65;48.778;9.160;2023-02-15T03:17:41;99815.91;;;-0.26;100.00
141;BME280;65;48.778;9.160;2023-02-15T03:20:12;99811.50;;;-0.37;100.00
141;BME280;65;48.778;9.160;2023-02-15T03:22:44;99804.53;;;-0.44;100.00
141;BME280;65;48.778;9.160;2023-02-15T03:25:16;99821.84;;;-0.41;100.00
141;BME280;65;48.778;9.160;2023-02-15T03:27:47;99812.31;;;-0.45;100.00
141;BME280;65;48.778;9.160;2023-02-15T03:30:15;99807.09;;;-0.47;100.00
141;BME280;65;48.778;9.160;2023-02-15T03:32:44;99807.09;;;-0.47;100.00
141;BME280;65;48.778;9.160;2023-02-15T03:35:12;99807.09;;;-0.47;100.00
141;BME280;65;48.778;9.160;2023-02-15T03:37:45;99806.22;;;-0.52;100.00
141;BME280;65;48.778;9.160;2023-02-15T03:40:23;99808.72;;;-0.61;100.00
141;BME280;65;48.778;9.160;2023-02-15T03:43:18;99819.09;;;-0.61;100.00
141;BME280;65;48.778;9.160;2023-02-15T03:45:50;99819.94;;;-0.65;100.00
141;BME280;65;48.778;9.160;2023-02-15T03:48:33;99819.91;;;-0.67;100.00
141;BME280;65;48.778;9.160;2023-02-15T03:51:04;99809.53;;;-0.68;100.00
141;BME280;65;48.778;9.160;2023-02-15T03:59:58;99823.19;;;-0.90;100.00
141;BME280;65;48.778;9.160;2023-02-15T04:05:14;99817.88;;;-1.03;100.00
141;BME280;65;48.778;9.160;2023-02-15T04:07:42;99822.25;;;-0.97;100.00
141;BME280;65;48.778;9.160;2023-02-15T04:10:07;99817.09;;;-0.92;100.00
141;BME280;65;48.778;9.160;2023-02-15T04:12:51;99813.66;;;-0.91;100.00
141;BME280;65;48.778;9.160;2023-02-15T04:15:17;99818.00;;;-0.87;100.00
141;BME280;65;48.778;9.160;2023-02-15T04:18:14;99815.41;;;-0.90;100.00
141;BME280;65;48.778;9.160;2023-02-15T04:20:43;99812.78;;;-0.93;100.00
141;BME280;65;48.778;9.160;2023-02-15T04:23:28;99814.50;;;-0.96;100.00
141;BME280;65;48.778;9.160;2023-02-15T04:26:11;99811.81;;;-1.05;100.00
141;BME280;65;48.778;9.160;2023-02-15T04:28:37;99812.63;;;-1.10;100.00
141;BME280;65;48.778;9.160;2023-02-15T04:31:02;99811.81;;;-1.03;100.00
141;BME280;65;48.778;9.160;2023-02-15T04:33:27;99808.38;;;-1.04;100.00
141;BME280;65;48.778;9.160;2023-02-15T04:35:53;99813.56;;;-1.01;100.00
141;BME280;65;48.778;9.160;2023-02-15T04:38:18;99804.94;;;-1.00;100.00
141;BME280;65;48.778;9.160;2023-02-15T04:40:43;99803.19;;;-1.01;100.00
141;BME280;65;48.778;9.160;2023-02-15T04:43:09;99802.31;;;-1.03;100.00
141;BME280;65;48.778;9.160;2023-02-15T04:45:34;99796.28;;;-1.02;100.00
141;BME280;65;48.778;9.160;2023-02-15T04:47:59;99797.16;;;-0.98;100.00
141;BME280;65;48.778;9.160;2023-02-15T04:50:25;99796.25;;;-1.05;100.00
141;BME280;65;48.778;9.160;2023-02-15T04:52:50;99784.09;;;-1.10;100.00
141;BME280;65;48.778;9.160;2023-02-15T04:55:16;99781.41;;;-1.18;100.00
141;BME280;65;48.778;9.160;2023-02-15T04:57:41;99773.56;;;-1.24;100.00
141;BME280;65;48.778;9.160;2023-02-15T05:00:07;99776.97;;;-1.28;100.00
141;BME280;65;48.778;9.160;2023-02-15T05:02:34;99774.38;;;-1.28;100.00
141;BME280;65;48.778;9.160;2023-02-15T05:04:59;99768.38;;;-1.24;100.00
141;BME280;65;48.778;9.160;2023-02-15T05:07:24;99782.28;;;-1.16;100.00
141;BME280;65;48.778;9.160;2023-02-15T05:09:50;99779.75;;;-1.11;100.00
141;BME280;65;48.778;9.160;2023-02-15T05:12:15;99778.91;;;-1.10;100.00
141;BME280;65;48.778;9.160;2023-02-15T05:14:40;99787.53;;;-1.13;100.00
141;BME280;65;48.778;9.160;2023-02-15T05:17:06;99790.91;;;-1.17;100.00
141;BME280;65;48.778;9.160;2023-02-15T05:19:31;99793.47;;;-1.21;100.00
141;BME280;65;48.778;9.160;2023-02-15T05:21:57;99795.13;;;-1.30;100.00
141;BME280;65;48.778;9.160;2023-02-15T05:24:22;99790.78;;;-1.31;100.00
141;BME280;65;48.778;9.160;2023-02-15T05:27:10;99789.13;;;-1.24;100.00
141;BME280;65;48.778;9.160;2023-02-15T05:29:54;99791.69;;;-1.25;100.00
141;BME280;65;48.778;9.160;2023-02-15T05:32:19;99789.16;;;-1.21;100.00
141;BME280;65;48.778;9.160;2023-02-15T05:34:44;99792.59;;;-1.22;100.00
141;BME280;65;48.778;9.160;2023-02-15T05:37:10;99790.84;;;-1.26;100.00
141;BME280;65;48.778;9.160;2023-02-15T05:39:35;99795.06;;;-1.36;100.00
141;BME280;65;48.778;9.160;2023-02-15T05:42:00;99798.47;;;-1.40;100.00
141;BME280;65;48.778;9.160;2023-02-15T05:44:32;99791.53;;;-1.44;100.00
141;BME280;65;48.778;9.160;2023-02-15T05:46:57;99794.19;;;-1.36;100.00
141;BME280;65;48.778;9.160;2023-02-15T05:49:28;99797.69;;;-1.31;100.00
141;BME280;65;48.778;9.160;2023-02-15T05:51:53;99795.94;;;-1.34;100.00
141;BME280;65;48.778;9.160;2023-02-15T05:54:19;99794.19;;;-1.36;100.00
141;BME280;65;48.778;9.160;2023-02-15T05:56:44;99791.56;;;-1.39;100.00
141;BME280;65;48.778;9.160;2023-02-15T05:59:10;99790.69;;;-1.41;100.00
141;BME280;65;48.778;9.160;2023-02-15T06:01:35;99789.78;;;-1.43;100.00
141;BME280;65;48.778;9.160;2023-02-15T06:04:10;99796.69;;;-1.44;100.00
141;BME280;65;48.778;9.160;2023-02-15T06:06:35;99799.28;;;-1.45;100.00
141;BME280;65;48.778;9.160;2023-02-15T06:09:01;99795.78;;;-1.49;100.00
141;BME280;65;48.778;9.160;2023-02-15T06:11:26;99799.22;;;-1.50;100.00
141;BME280;65;48.778;9.160;2023-02-15T06:13:51;99789.69;;;-1.54;100.00
141;BME280;65;48.778;9.160;2023-02-15T06:16:17;99794.84;;;-1.55;100.00
141;BME280;65;48.778;9.160;2023-02-15T06:18:42;99797.41;;;-1.58;100.00
141;BME280;65;48.778;9.160;2023-02-15T06:21:08;99796.53;;;-1.59;100.00
141;BME280;65;48.778;9.160;2023-02-15T06:23:33;99807.78;;;-1.58;100.00
141;BME280;65;48.778;9.160;2023-02-15T06:26:02;99802.59;;;-1.58;100.00
141;BME280;65;48.778;9.160;2023-02-15T06:28:27;99805.28;;;-1.49;100.00
141;BME280;65;48.778;9.160;2023-02-15T06:30:53;99806.16;;;-1.47;100.00
141;BME280;65;48.778;9.160;2023-02-15T06:33:18;99812.22;;;-1.48;100.00
141;BME280;65;48.778;9.160;2023-02-15T06:35:44;99806.09;;;-1.53;100.00
141;BME280;65;48.778;9.160;2023-02-15T06:38:10;99813.88;;;-1.55;100.00
141;BME280;65;48.778;9.160;2023-02-15T06:40:35;99814.69;;;-1.57;100.00
141;BME280;65;48.778;9.160;2023-02-15T06:43:01;99820.75;;;-1.58;100.00
141;BME280;65;48.778;9.160;2023-02-15T06:45:26;99823.34;;;-1.58;100.00
141;BME280;65;48.778;9.160;2023-02-15T06:47:52;99823.34;;;-1.58;100.00
141;BME280;65;48.778;9.160;2023-02-15T06:50:17;99819.91;;;-1.54;100.00
141;BME280;65;48.778;9.160;2023-02-15T06:52:43;99823.38;;;-1.55;100.00
141;BME280;65;48.778;9.160;2023-02-15T06:55:08;99824.22;;;-1.55;100.00
141;BME280;65;48.778;9.160;2023-02-15T06:57:33;99823.44;;;-1.49;100.00
141;BME280;65;48.778;9.160;2023-02-15T06:59:59;99818.25;;;-1.49;100.00
141;BME280;65;48.778;9.160;2023-02-15T07:02:24;99821.72;;;-1.47;100.00
141;BME280;65;48.778;9.160;2023-02-15T07:04:50;99824.31;;;-1.47;100.00
141;BME280;65;48.778;9.160;2023-02-15T07:07:15;99828.69;;;-1.42;100.00
141;BME280;65;48.778;9.160;2023-02-15T07:09:41;99833.00;;;-1.42;100.00
141;BME280;65;48.778;9.160;2023-02-15T07:12:07;99827.00;;;-1.38;100.00
141;BME280;65;48.778;9.160;2023-02-15T07:14:51;99839.13;;;-1.37;100.00
141;BME280;65;48.778;9.160;2023-02-15T07:17:16;99838.25;;;-1.39;100.00
141;BME280;65;48.778;9.160;2023-02-15T07:19:42;99842.56;;;-1.40;100.00
141;BME280;65;48.778;9.160;2023-02-15T07:22:08;99840.88;;;-1.36;100.00
141;BME280;65;48.778;9.160;2023-02-15T07:24:33;99840.81;;;-1.39;100.00
141;BME280;65;48.778;9.160;2023-02-15T07:26:59;99846.03;;;-1.36;100.00
141;BME280;65;48.778;9.160;2023-02-15T07:29:24;99848.69;;;-1.33;100.00
141;BME280;65;48.778;9.160;2023-02-15T07:31:50;99846.16;;;-1.27;100.00
141;BME280;65;48.778;9.160;2023-02-15T07:34:15;99844.31;;;-1.37;100.00
141;BME280;65;48.778;9.160;2023-02-15T07:36:41;99844.44;;;-1.25;100.00
141;BME280;65;48.778;9.160;2023-02-15T07:39:06;99847.91;;;-1.23;100.00
141;BME280;65;48.778;9.160;2023-02-15T07:41:32;99839.25;;;-1.25;100.00
141;BME280;65;48.778;9.160;2023-02-15T07:43:57;99841.66;;;-1.42;100.00
141;BME280;65;48.778;9.160;2023-02-15T07:46:23;99831.19;;;-1.52;100.00
141;BME280;65;48.778;9.160;2023-02-15T07:48:48;99831.16;;;-1.54;100.00
141;BME280;65;48.778;9.160;2023-02-15T07:51:14;99828.59;;;-1.52;100.00
141;BME280;65;48.778;9.160;2023-02-15T07:53:41;99816.59;;;-1.43;100.00
141;BME280;65;48.778;9.160;2023-02-15T07:56:10;99819.13;;;-1.49;100.00
141;BME280;65;48.778;9.160;2023-02-15T07:58:35;99827.06;;;-1.34;100.00
141;BME280;65;48.778;9.160;2023-02-15T08:01:38;99823.50;;;-1.43;100.00
141;BME280;65;48.778;9.160;2023-02-15T08:04:03;99824.47;;;-1.34;100.00
141;BME280;65;48.778;9.160;2023-02-15T08:06:34;99824.50;;;-1.29;100.00
141;BME280;65;48.778;9.160;2023-02-15T08:09:00;99832.47;;;-1.14;100.00
141;BME280;65;48.778;9.160;2023-02-15T08:11:29;99839.56;;;-0.98;100.00
141;BME280;65;48.778;9.160;2023-02-15T08:18:57;99837.84;;;-0.96;100.00
141;BME280;65;48.778;9.160;2023-02-15T08:21:25;99831.88;;;-0.87;100.00
141;BME280;65;48.778;9.160;2023-02-15T08:23:51;99828.44;;;-0.83;100.00
141;BME280;65;48.778;9.160;2023-02-15T08:26:17;99834.66;;;-0.61;100.00
141;BME280;65;48.778;9.160;2023-02-15T08:28:42;99828.75;;;-0.46;100.00
141;BME280;65;48.778;9.160;2023-02-15T08:31:10;99831.44;;;-0.33;100.00
141;BME280;65;48.778;9.160;2023-02-15T08:33:37;99830.59;;;-0.30;100.00
141;BME280;65;48.778;9.160;2023-02-15T08:36:09;99828.91;;;-0.23;100.00
141;BME280;65;48.778;9.160;2023-02-15T08:38:35;99830.63;;;-0.24;100.00
141;BME280;65;48.778;9.160;2023-02-15T08:41:14;99819.41;;;-0.15;100.00
141;BME280;65;48.778;9.160;2023-02-15T08:43:41;99825.44;;;-0.25;100.00
141;BME280;65;48.778;9.160;2023-02-15T08:46:07;99825.50;;;-0.10;100.00
141;BME280;65;48.778;9.160;2023-02-15T08:48:33;99829.00;;;-0.07;100.00
141;BME280;65;48.778;9.160;2023-02-15T08:51:04;99828.16;;;-0.01;100.00
141;BME280;65;48.778;9.160;2023-02-15T08:53:30;99833.34;;;-0.04;100.00
141;BME280;65;48.778;9.160;2023-02-15T08:55:57;99820.41;;;0.04;100.00
141;BME280;65;48.778;9.160;2023-02-15T08:58:22;99823.97;;;0.21;100.00
141;BME280;65;48.778;9.160;2023-02-15T09:00:48;99820.47;;;0.13;100.00
141;BME280;65;48.778;9.160;2023-02-15T09:03:13;99817.78;;;-0.01;100.00
141;BME280;65;48.778;9.160;2023-02-15T09:05:39;99814.25;;;-0.12;100.00
141;BME280;65;48.778;9.160;2023-02-15T09:08:04;99816.13;;;0.13;100.00
141;BME280;65;48.778;9.160;2023-02-15T09:10:29;99816.16;;;0.18;100.00
141;BME280;65;48.778;9.160;2023-02-15T09:12:55;99807.56;;;0.34;100.00
141;BME280;65;48.778;9.160;2023-02-15T09:15:20;99807.59;;;0.52;100.00
141;BME280;65;48.778;9.160;2023-02-15T09:17:45;99807.69;;;0.72;100.00
141;BME280;65;48.778;9.160;2023-02-15T09:20:11;99803.34;;;0.74;100.00
141;BME280;65;48.778;9.160;2023-02-15T09:22:37;99812.91;;;0.78;100.00
141;BME280;65;48.778;9.160;2023-02-15T09:25:02;99805.09;;;0.81;100.00
141;BME280;65;48.778;9.160;2023-02-15T09:27:29;99803.38;;;0.85;100.00
141;BME280;65;48.778;9.160;2023-02-15T09:29:54;99797.31;;;0.89;100.00
141;BME280;65;48.778;9.160;2023-02-15T09:32:19;99792.13;;;1.00;100.00
141;BME280;65;48.778;9.160;2023-02-15T09:34:45;99795.56;;;0.74;100.00
141;BME280;65;48.778;9.160;2023-02-15T09:37:10;99785.16;;;0.74;100.00
141;BME280;65;48.778;9.160;2023-02-15T09:39:37;99789.50;;;0.90;100.00
141;BME280;65;48.778;9.160;2023-02-15T09:45:06;99784.31;;;1.13;100.00
141;BME280;65;48.778;9.160;2023-02-15T09:55:54;99780.88;;;1.22;100.00
141;BME280;65;48.778;9.160;2023-02-15T10:00:59;99773.88;;;1.13;100.00
141;BME280;65;48.778;9.160;2023-02-15T10:17:35;99766.03;;;1.70;100.00
141;BME280;65;48.778;9.160;2023-02-15T10:20:49;99767.75;;;1.84;100.00
141;BME280;65;48.778;9.160;2023-02-15T10:26:28;99760.69;;;2.12;100.00
141;BME280;65;48.778;9.160;2023-02-15T10:29:14;99755.47;;;2.17;100.00
141;BME280;65;48.778;9.160;2023-02-15T10:32:35;99752.91;;;2.08;100.00
141;BME280;65;48.778;9.160;2023-02-15T10:34:38;99751.06;;;2.25;100.00
141;BME280;65;48.778;9.160;2023-02-15T10:37:09;99750.16;;;2.40;98.70
141;BME280;65;48.778;9.160;2023-02-15T10:42:44;99746.44;;;2.77;98.70
141;BME280;65;48.778;9.160;2023-02-15T10:51:02;99725.34;;;3.06;95.79
141;BME280;65;48.778;9.160;2023-02-15T10:56:43;99721.59;;;3.38;95.77
141;BME280;65;48.778;9.160;2023-02-15T11:02:30;99710.91;;;3.61;92.20
141;BME280;65;48.778;9.160;2023-02-15T11:05:14;99715.00;;;3.85;91.59
141;BME280;65;48.778;9.160;2023-02-15T11:07:44;99710.59;;;3.90;91.15
141;BME280;65;48.778;9.160;2023-02-15T11:11:10;99711.28;;;4.05;90.00
141;BME280;65;48.778;9.160;2023-02-15T11:13:18;99705.91;;;4.18;89.54
141;BME280;65;48.778;9.160;2023-02-15T11:18:44;99697.81;;;4.34;88.82
141;BME280;65;48.778;9.160;2023-02-15T11:21:17;99691.50;;;4.49;87.86
141;BME280;65;48.778;9.160;2023-02-15T11:23:46;99691.31;;;4.60;86.55
141;BME280;65;48.778;9.160;2023-02-15T11:26:34;99693.81;;;4.70;87.29
141;BME280;65;48.778;9.160;2023-02-15T11:31:45;99684.09;;;4.79;86.29
141;BME280;65;48.778;9.160;2023-02-15T11:34:24;99689.09;;;4.92;85.87
141;BME280;65;48.778;9.160;2023-02-15T11:36:54;99686.13;;;5.12;84.06
141;BME280;65;48.778;9.160;2023-02-15T11:39:24;99678.91;;;5.26;83.94
141;BME280;65;48.778;9.160;2023-02-15T11:42:00;99681.53;;;5.26;84.47
141;BME280;65;48.778;9.160;2023-02-15T11:44:37;99684.69;;;5.45;83.80
141;BME280;65;48.778;9.160;2023-02-15T11:47:10;99679.22;;;5.57;83.37
141;BME280;65;48.778;9.160;2023-02-15T11:49:36;99681.41;;;5.80;81.72
141;BME280;65;48.778;9.160;2023-02-15T11:52:07;99679.47;;;5.91;81.63
141;BME280;65;48.778;9.160;2023-02-15T11:54:39;99680.03;;;6.06;80.77
141;BME280;65;48.778;9.160;2023-02-15T11:59:49;99678.53;;;6.34;79.29
141;BME280;65;48.778;9.160;2023-02-15T12:02:20;99675.22;;;6.26;80.54
141;BME280;65;48.778;9.160;2023-02-15T12:04:54;99678.50;;;6.37;79.71
141;BME280;65;48.778;9.160;2023-02-15T12:07:28;99670.41;;;6.46;80.26
141;BME280;65;48.778;9.160;2023-02-15T12:12:33;99665.25;;;6.79;78.41
141;BME280;65;48.778;9.160;2023-02-15T12:15:00;99659.78;;;6.88;77.29
141;BME280;65;48.778;9.160;2023-02-15T12:17:29;99664.72;;;7.02;77.73
141;BME280;65;48.778;9.160;2023-02-15T12:23:01;99656.88;;;7.00;77.60
141;BME280;65;48.778;9.160;2023-02-15T12:25:37;99651.28;;;7.12;75.98
141;BME280;65;48.778;9.160;2023-02-15T12:28:22;99650.97;;;7.24;76.68
141;BME280;65;48.778;9.160;2023-02-15T12:30:50;99647.63;;;7.50;75.52
141;BME280;65;48.778;9.160;2023-02-15T12:35:47;99653.75;;;7.51;76.62
141;BME280;65;48.778;9.160;2023-02-15T12:40:40;99642.19;;;7.58;75.86
141;BME280;65;48.778;9.160;2023-02-15T12:43:29;99646.19;;;7.71;75.88
141;BME280;65;48.778;9.160;2023-02-15T12:46:21;99627.66;;;7.76;75.04
141;BME280;65;48.778;9.160;2023-02-15T12:49:05;99628.97;;;7.90;74.71
141;BME280;65;48.778;9.160;2023-02-15T12:51:42;99621.56;;;8.03;74.27
141;BME280;65;48.778;9.160;2023-02-15T12:54:40;99617.03;;;8.08;73.86
141;BME280;65;48.778;9.160;2023-02-15T12:57:27;99616.00;;;8.14;73.63
141;BME280;65;48.778;9.160;2023-02-15T13:04:57;99614.28;;;8.42;71.91
141;BME280;65;48.778;9.160;2023-02-15T13:07:32;99605.84;;;8.30;72.91
141;BME280;65;48.778;9.160;2023-02-15T13:09:58;99597.66;;;8.40;71.90
141;BME280;65;48.778;9.160;2023-02-15T13:12:26;99600.13;;;8.45;71.66
141;BME280;65;48.778;9.160;2023-02-15T13:14:53;99589.19;;;8.29;72.74
141;BME280;65;48.778;9.160;2023-02-15T13:17:24;99585.81;;;8.53;71.97
141;BME280;65;48.778;9.160;2023-02-15T13:19:56;99582.69;;;8.69;71.80
141;BME280;65;48.778;9.160;2023-02-15T13:22:37;99577.41;;;8.69;71.93
141;BME280;65;48.778;9.160;2023-02-15T13:25:24;99578.22;;;8.71;71.94
141;BME280;65;48.778;9.160;2023-02-15T13:27:57;99572.69;;;8.78;71.70
141;BME280;65;48.778;9.160;2023-02-15T13:30:30;99577.22;;;8.75;72.02
141;BME280;65;48.778;9.160;2023-02-15T13:33:36;99573.88;;;8.70;72.91
141;BME280;65;48.778;9.160;2023-02-15T13:42:25;99572.50;;;8.84;72.68
141;BME280;65;48.778;9.160;2023-02-15T13:47:52;99561.91;;;8.86;73.16
141;BME280;65;48.778;9.160;2023-02-15T13:55:51;99558.66;;;9.03;73.15
141;BME280;65;48.778;9.160;2023-02-15T14:01:20;99557.22;;;8.94;72.94
141;BME280;65;48.778;9.160;2023-02-15T14:15:15;99537.13;;;10.74;66.08
141;BME280;65;48.778;9.160;2023-02-15T14:26:12;99536.31;;;17.79;40.82
141;BME280;65;48.778;9.160;2023-02-15T14:31:42;99536.53;;;17.89;40.18
141;BME280;65;48.778;9.160;2023-02-15T14:34:19;99536.25;;;18.78;37.45
141;BME280;65;48.778;9.160;2023-02-15T14:36:46;99536.88;;;18.57;38.14
141;BME280;65;48.778;9.160;2023-02-15T14:39:17;99536.03;;;18.81;37.68
141;BME280;65;48.778;9.160;2023-02-15T14:44:43;99530.13;;;18.28;36.57
141;BME280;65;48.778;9.160;2023-02-15T14:47:36;99531.41;;;18.83;35.93
141;BME280;65;48.778;9.160;2023-02-15T14:56:25;99533.97;;;19.19;34.92
141;BME280;65;48.778;9.160;2023-02-15T15:03:53;99532.78;;;17.53;38.46
141;BME280;65;48.778;9.160;2023-02-15T15:06:27;99536.84;;;18.70;35.63
141;BME280;65;48.778;9.160;2023-02-15T15:15:11;99537.56;;;18.12;36.53
141;BME280;65;48.778;9.160;2023-02-15T15:18:01;99531.19;;;17.63;36.89
141;BME280;65;48.778;9.160;2023-02-15T15:20:51;99535.63;;;18.14;36.34
141;BME280;65;48.778;9.160;2023-02-15T15:23:44;99536.84;;;17.97;35.93
141;BME280;65;48.778;9.160;2023-02-15T15:26:31;99527.50;;;16.88;37.95
141;BME280;65;48.778;9.160;2023-02-15T15:29:39;99526.13;;;16.95;37.91
141;BME280;65;48.778;9.160;2023-02-15T15:32:27;99521.50;;;16.31;40.13
141;BME280;65;48.778;9.160;2023-02-15T15:38:49;99534.16;;;15.58;41.15
141;BME280;65;48.778;9.160;2023-02-15T15:51:22;99538.38;;;11.07;52.29
141;BME280;65;48.778;9.160;2023-02-15T15:54:19;99539.59;;;10.13;55.84
141;BME280;65;48.778;9.160;2023-02-15T15:57:05;99538.56;;;9.48;58.79
141;BME280;65;48.778;9.160;2023-02-15T15:59:58;99543.00;;;8.98;62.66
141;BME280;65;48.778;9.160;2023-02-15T16:02:53;99540.75;;;8.61;63.77
141;BME280;65;48.778;9.160;2023-02-15T16:05:40;99542.59;;;8.31;65.76
141;BME280;65;48.778;9.160;2023-02-15T16:11:24;99538.03;;;7.80;68.64
141;BME280;65;48.778;9.160;2023-02-15T16:14:26;99539.59;;;7.58;70.44
141;BME280;65;48.778;9.160;2023-02-15T16:17:20;99553.25;;;7.40;73.20
141;BME280;65;48.778;9.160;2023-02-15T16:20:17;99546.06;;;7.15;74.78
141;BME280;65;48.778;9.160;2023-02-15T16:26:39;99550.84;;;6.67;76.61
141;BME280;65;48.778;9.160;2023-02-15T16:29:29;99554.91;;;6.45;79.18
141;BME280;65;48.778;9.160;2023-02-15T16:32:17;99550.97;;;6.25;81.08
141;BME280;65;48.778;9.160;2023-02-15T16:35:14;99564.38;;;6.13;82.54
141;BME280;65;48.778;9.160;2023-02-15T16:38:02;99558.78;;;5.91;83.46
141;BME280;65;48.778;9.160;2023-02-15T16:40:52;99566.06;;;5.76;84.71
141;BME280;65;48.778;9.160;2023-02-15T16:43:44;99562.81;;;5.64;85.83
141;BME280;65;48.778;9.160;2023-02-15T16:46:40;99564.69;;;5.58;87.11
141;BME280;65;48.778;9.160;2023-02-15T16:49:28;99566.69;;;5.47;87.98
141;BME280;65;48.778;9.160;2023-02-15T16:52:21;99560.66;;;5.42;89.03
141;BME280;65;48.778;9.160;2023-02-15T16:55:26;99570.50;;;5.30;90.59
141;BME280;65;48.778;9.160;2023-02-15T16:58:15;99566.34;;;5.20;90.59
141;BME280;65;48.778;9.160;2023-02-15T17:01:02;99573.38;;;5.17;91.57
141;BME280;65;48.778;9.160;2023-02-15T17:07:19;99579.00;;;4.97;93.28
141;BME280;65;48.778;9.160;2023-02-15T17:10:26;99582.59;;;4.91;94.40
141;BME280;65;48.778;9.160;2023-02-15T17:13:14;99586.13;;;4.89;95.18
141;BME280;65;48.778;9.160;2023-02-15T17:18:45;99590.03;;;4.65;95.14
141;BME280;65;48.778;9.160;2023-02-15T17:21:33;99594.56;;;4.54;96.62
141;BME280;65;48.778;9.160;2023-02-15T17:24:41;99592.72;;;4.59;96.45
141;BME280;65;48.778;9.160;2023-02-15T17:27:29;99596.47;;;4.44;96.70
141;BME280;65;48.778;9.160;2023-02-15T17:30:23;99594.91;;;4.32;97.10
141;BME280;65;48.778;9.160;2023-02-15T17:33:25;99594.97;;;4.28;97.75
141;BME280;65;48.778;9.160;2023-02-15T17:36:19;99602.00;;;4.24;98.22
141;BME280;65;48.778;9.160;2023-02-15T17:39:20;99604.72;;;4.18;98.52